Tropical Cyclones
[Index]
Main Index Home Page Stock Weather Photos Extreme Storms Discussion Storm News and Storm Chasing Reports Tropical Cyclones / Hurricanes / Typhoons Weather Data and Links Wild Fires / Bushfires Weather Observation Techniques Weather Picture Catalogue Tornado Pictures and Reports Stock Video Footage and DVDs for sale
Season 1977-1978 Tropical Cyclone BRENDA Track Map
Season 1977-1978 Summaries: [BoM-AU] [JTWC-AU] [JTWC-SIO] [JTWC-SPAC] [JTWC-SH]
<<- Previous TC | BoM 1977-1978 Season | Next TC ->>

click for intensity scale information  Lat/long Grid: Show Hide

 Date Labels: Show Hide

Bureau of Meteorology Tropical Cyclone Data

Name: BRENDA
Number: 582 / 197778_08

05 Apr 1978 01:00 UTC to 14 Apr 1978 01:00 UTC

    date/time    lat    long    hPa   cat  kts
1978-04-05 01   11.0   120.4   1007                     
1978-04-05 04   11.2   120.2   1006                     
1978-04-05 07   11.4   119.9   1005                     
1978-04-05 10   11.5   119.7   1005                     
1978-04-05 13   11.5   119.5   1005                     
1978-04-05 16   11.6   119.2   1005                     
1978-04-05 19   11.6   119.0   1003                     
1978-04-05 22   11.7   118.7   1003                     
1978-04-06 01   11.7   118.4   1003                     
1978-04-06 04   11.7   118.2   1002                     
1978-04-06 07   11.8   118.0   1001                     
1978-04-06 10   11.8   117.8   1001                     
1978-04-06 13   11.8   117.6   1000                     
1978-04-06 16   11.9   117.4    999                     
1978-04-06 19   11.9   117.2    998                     
1978-04-06 22   12.0   117.0    996                     
1978-04-07 01   12.0   116.7    995    1                
1978-04-07 04   12.1   116.5    994    1                
1978-04-07 07   12.1   116.3    993    1                
1978-04-07 10   12.2   116.1    992    1                
1978-04-07 13   12.3   115.8    992    1                
1978-04-07 16   12.5   115.5    991    1                
1978-04-07 19   12.6   115.3    990    1                
1978-04-07 22   12.7   115.1    990    1                
1978-04-08 01   12.8   114.9    990    1                
1978-04-08 04   12.9   114.7    990    1                
1978-04-08 06   13.0   114.6                            
1978-04-08 07   13.1   114.5    990    1                
1978-04-08 10   13.3   114.2    990    1                
1978-04-08 13   13.5   114.0    990    1                
1978-04-08 16   13.7   113.8    990    1                
1978-04-08 19   13.9   113.7    990    1                
1978-04-08 22   14.2   113.6    990    1                
1978-04-09 01   14.4   113.6    990    1                
1978-04-09 04   14.5   113.6    990    1                
1978-04-09 07   14.6   113.7    990    1                
1978-04-09 10   14.7   113.8    990    1                
1978-04-09 13   14.8   113.9    990    1                
1978-04-09 16   14.8   114.1    990    1                
1978-04-09 19   14.8   114.2    990    1                
1978-04-09 22   14.8   114.4    990    1                
1978-04-10 01   14.8   114.6    990    1                
1978-04-10 04   14.9   114.8    990    1                
1978-04-10 07   15.0   115.1    990    1                
1978-04-10 10   15.2   115.3    991    1                
1978-04-10 13   15.3   115.5    992    1                
1978-04-10 16   15.4   115.7    993    1                
1978-04-10 19   15.5   115.9    994    1                
1978-04-10 22   15.6   116.1    995    1                
1978-04-11 01   15.7   116.2    995    1                
1978-04-11 04   15.8   116.4    996                     
1978-04-11 07   15.8   116.5    996                     
1978-04-11 10   15.8   116.7    997                     
1978-04-11 13   15.9   116.8    997                     
1978-04-11 16   15.9   117.1    998                     
1978-04-11 19   15.9   117.2    999                     
1978-04-11 22   15.9   117.3   1000                     
1978-04-12 01   16.0   117.5   1001                     
1978-04-12 04   16.2   117.8   1001                     
1978-04-12 07   16.6   117.7   1001                     
1978-04-12 10   16.7   117.5   1002                     
1978-04-12 13   16.7   117.2   1002                     
1978-04-12 16   16.7   116.9   1002                     
1978-04-12 19   16.7   116.5   1003                     
1978-04-12 22   16.8   116.2   1003                     
1978-04-13 01   17.0   115.9   1004                     
1978-04-13 04   17.2   115.5   1004                     
1978-04-13 07   17.2   115.0   1004                     
1978-04-13 10   17.3   114.5   1004                     
1978-04-13 13   17.3   114.0   1004                     
1978-04-13 19   17.4   113.0   1005                     
1978-04-14 01   17.5   111.8   1006                     
Winds are 10-min average.

Tropical cyclone tracks developed by Michael Bath using data from the Bureau of Meteorology and Google Maps.


[Australian Severe Weather index] [Copyright Notice] [Email Contacts] [Search This Site] [Privacy Policy]
Document: tropical_cyclone_brenda.htm Updated: 30 May 2013